Time;durP1;ratioP1;P1;durP2;ratioP2;P2;SDS_P1;SDS_P2;PMS_P1;PMS_P2;Temp;Humidity;BMP_temperature;BMP_pressure;BME280_temperature;BME280_humidity;BME280_pressure;Samples;Min_cycle;Max_cycle;Signal;HPM_P1;HPM_P2
2022/05/03 00:02:06;;;;;;;9.30;8.50;;;15.00;1.00;;;;;;5103504;28;21902;-57
2022/05/03 00:04:52;;;;;;;10.50;9.43;;;15.00;1.00;;;;;;5102168;28;20442;-53
2022/05/03 00:07:27;;;;;;;10.40;9.40;;;15.00;1.00;;;;;;5107892;28;20554;-56
2022/05/03 00:10:37;;;;;;;10.07;9.17;;;14.90;1.00;;;;;;5101669;28;20447;-52
2022/05/03 00:13:09;;;;;;;9.40;8.53;;;14.90;1.00;;;;;;5056184;28;20451;-56
2022/05/03 00:15:38;;;;;;;11.00;9.70;;;14.80;1.00;;;;;;5096039;28;20525;-54
2022/05/03 00:18:06;;;;;;;11.47;10.27;;;14.80;1.00;;;;;;5106954;28;20547;-54
2022/05/03 00:20:32;;;;;;;12.07;10.97;;;14.70;1.00;;;;;;5094329;28;20558;-55
2022/05/03 00:22:59;;;;;;;11.00;9.97;;;14.70;1.00;;;;;;5108483;28;20493;-54
2022/05/03 00:25:25;;;;;;;10.97;9.83;;;14.60;1.00;;;;;;5106427;28;20493;-53
2022/05/03 00:27:51;;;;;;;10.97;9.97;;;14.60;1.00;;;;;;5104674;28;20462;-56
2022/05/03 00:30:17;;;;;;;11.70;10.57;;;14.60;1.00;;;;;;5097603;28;20442;-52
2022/05/03 00:32:43;;;;;;;12.93;9.73;;;;;;;;;;5109068;28;20539;-53
2022/05/03 00:35:10;;;;;;;11.77;10.67;;;14.60;1.00;;;;;;5107947;28;22100;-54
2022/05/03 00:37:36;;;;;;;12.30;10.30;;;14.60;1.00;;;;;;5098800;28;20530;-55
2022/05/03 00:40:03;;;;;;;13.53;11.13;;;14.40;1.00;;;;;;5089499;28;20999;-55
2022/05/03 00:42:31;;;;;;;11.37;10.37;;;14.40;1.00;;;;;;5104849;28;20447;-52
2022/05/03 00:45:14;;;;;;;12.63;10.43;;;14.40;1.00;;;;;;5104366;28;20879;-55
2022/05/03 00:48:10;;;;;;;13.30;11.30;;;14.50;1.00;;;;;;5106951;28;20444;-55
2022/05/03 00:51:04;;;;;;;13.00;11.27;;;14.40;1.00;;;;;;5097749;28;20508;-53
2022/05/03 00:53:38;;;;;;;12.37;11.17;;;14.50;1.00;;;;;;5100365;28;21029;-52
2022/05/03 00:56:23;;;;;;;12.83;11.00;;;14.50;1.00;;;;;;5102398;28;20459;-54
2022/05/03 00:59:00;;;;;;;16.37;11.10;;;14.40;1.00;;;;;;5107797;28;20452;-55
2022/05/03 01:01:36;;;;;;;14.27;11.77;;;14.40;1.00;;;;;;5099048;28;20456;-55
2022/05/03 01:04:39;;;;;;;13.83;10.97;;;14.40;1.00;;;;;;5081835;28;21100;-54
2022/05/03 01:07:28;;;;;;;11.70;10.50;;;14.40;1.00;;;;;;5099948;28;20475;-55
2022/05/03 01:10:01;;;;;;;12.30;9.57;;;14.40;1.00;;;;;;5102904;28;20529;-55
2022/05/03 01:12:56;;;;;;;12.43;10.97;;;14.30;1.00;;;;;;5105824;28;20439;-56
2022/05/03 01:15:29;;;;;;;11.20;10.20;;;14.20;1.00;;;;;;5102359;28;20484;-55
2022/05/03 01:18:27;;;;;;;10.87;9.87;;;14.20;1.00;;;;;;5102764;28;20447;-54
2022/05/03 01:21:16;;;;;;;10.70;9.70;;;14.10;1.00;;;;;;5084744;28;20558;-54
2022/05/03 01:23:57;;;;;;;11.40;10.07;;;13.90;1.00;;;;;;5097491;28;20445;-57
2022/05/03 01:26:41;;;;;;;13.43;9.67;;;13.80;1.00;;;;;;5097148;28;20440;-56
2022/05/03 01:29:30;;;;;;;10.30;9.30;;;13.80;1.00;;;;;;5091882;28;20444;-55
2022/05/03 01:32:02;;;;;;;12.40;11.03;;;13.60;1.00;;;;;;5102182;28;20443;-56
2022/05/03 01:34:29;;;;;;;13.13;11.73;;;13.50;1.00;;;;;;5083256;28;20846;-55
2022/05/03 01:37:00;;;;;;;14.17;10.90;;;13.40;1.00;;;;;;5105845;28;20928;-55
2022/05/03 01:40:01;;;;;;;20.90;12.50;;;13.30;1.00;;;;;;5105266;28;20828;-54
2022/05/03 01:42:38;;;;;;;11.87;10.47;;;13.30;1.00;;;;;;5104257;28;20832;-54
2022/05/03 01:45:09;;;;;;;12.73;10.23;;;13.20;1.00;;;;;;5103640;28;20467;-53
2022/05/03 01:47:59;;;;;;;11.40;10.33;;;13.20;1.00;;;;;;5094246;28;20439;-54
2022/05/03 01:51:00;;;;;;;11.23;10.23;;;13.20;1.00;;;;;;5101032;28;20452;-53
2022/05/03 01:53:45;;;;;;;11.00;10.00;;;13.30;1.00;;;;;;5099659;28;20960;-52
2022/05/03 01:56:28;;;;;;;12.67;10.93;;;13.40;1.00;;;;;;5088536;28;20440;-54
2022/05/03 01:59:09;;;;;;;13.63;11.60;;;13.30;1.00;;;;;;5096353;28;20498;-55
2022/05/03 02:01:47;;;;;;;15.37;11.13;;;13.40;1.00;;;;;;5104797;28;20467;-55
2022/05/03 02:04:35;;;;;;;17.57;11.10;;;13.30;1.00;;;;;;5101072;28;20526;-55
2022/05/03 02:07:27;;;;;;;14.17;12.60;;;13.30;1.00;;;;;;5103311;28;21109;-55
2022/05/03 02:10:23;;;;;;;12.20;10.93;;;13.30;1.00;;;;;;5078969;28;20439;-55
2022/05/03 02:13:01;;;;;;;12.20;11.03;;;13.30;1.00;;;;;;5107542;28;21147;-54
2022/05/03 02:15:39;;;;;;;11.73;10.57;;;13.20;1.00;;;;;;5096481;28;20444;-54
2022/05/03 02:18:20;;;;;;;12.43;11.13;;;13.10;1.00;;;;;;5102467;28;20443;-56
2022/05/03 02:21:13;;;;;;;11.20;10.13;;;13.00;1.00;;;;;;5097481;28;20471;-53
2022/05/03 02:23:42;;;;;;;11.83;10.40;;;13.10;1.00;;;;;;5100408;28;20454;-55
2022/05/03 02:26:23;;;;;;;12.63;9.63;;;13.10;1.00;;;;;;5104607;28;20448;-55
2022/05/03 02:28:55;;;;;;;12.53;9.63;;;13.10;1.00;;;;;;5101934;28;20573;-55
2022/05/03 02:31:35;;;;;;;11.20;10.10;;;13.20;1.00;;;;;;5098549;28;20452;-53
2022/05/03 02:34:12;;;;;;;11.73;10.63;;;13.10;1.00;;;;;;5092267;28;20436;-56
2022/05/03 02:36:47;;;;;;;12.50;10.23;;;13.00;1.00;;;;;;5098481;28;20485;-57
2022/05/03 02:39:17;;;;;;;11.70;10.30;;;12.90;1.00;;;;;;5100426;28;20459;-54
2022/05/03 02:41:46;;;;;;;11.00;9.93;;;12.80;1.00;;;;;;5103932;28;20472;-55
2022/05/03 02:44:13;;;;;;;11.20;10.03;;;12.80;1.00;;;;;;5098302;28;20504;-55
2022/05/03 02:46:55;;;;;;;10.90;9.90;;;12.80;1.00;;;;;;5101289;28;20444;-56
2022/05/03 02:49:48;;;;;;;10.43;9.50;;;12.60;1.00;;;;;;5102684;28;21042;-54
2022/05/03 02:52:32;;;;;;;11.80;10.30;;;12.50;1.00;;;;;;5102924;28;20500;-55
2022/05/03 02:55:45;;;;;;;11.90;9.50;;;12.50;1.00;;;;;;5106399;28;20527;-57
2022/05/03 02:58:35;;;;;;;11.33;10.23;;;12.40;1.00;;;;;;5099566;28;20559;-55
2022/05/03 03:01:48;;;;;;;10.90;9.80;;;12.40;1.00;;;;;;5104806;28;20507;-56
2022/05/03 03:04:32;;;;;;;12.27;10.80;;;12.30;1.00;;;;;;5101716;28;20523;-55
2022/05/03 03:06:59;;;;;;;12.53;11.33;;;12.30;1.00;;;;;;5112023;28;20448;-55
2022/05/03 03:09:37;;;;;;;11.13;10.13;;;12.30;1.00;;;;;;5110004;28;20968;-56
2022/05/03 03:12:04;;;;;;;11.17;10.03;;;12.40;1.00;;;;;;5100402;28;20441;-55
2022/05/03 03:14:48;;;;;;;12.43;9.70;;;12.40;1.00;;;;;;5107616;28;20454;-56
2022/05/03 03:17:22;;;;;;;12.40;11.00;;;12.40;1.00;;;;;;5102280;28;20444;-56
2022/05/03 03:19:59;;;;;;;11.07;9.97;;;12.40;1.00;;;;;;5098090;27;20448;-55
2022/05/03 03:22:30;;;;;;;11.43;10.23;;;12.40;1.00;;;;;;5107826;28;20436;-55
2022/05/03 03:24:58;;;;;;;12.20;10.70;;;12.40;1.00;;;;;;5103719;28;20436;-53
2022/05/03 03:27:26;;;;;;;11.67;10.57;;;12.40;1.00;;;;;;5101003;28;20449;-55
2022/05/03 03:29:55;;;;;;;10.60;9.50;;;12.30;1.00;;;;;;5109570;28;20539;-54
2022/05/03 03:32:22;;;;;;;12.47;11.17;;;12.40;1.00;;;;;;5101970;28;20451;-55
2022/05/03 03:34:49;;;;;;;12.00;10.80;;;12.30;1.00;;;;;;5101954;28;20531;-56
2022/05/03 03:37:16;;;;;;;14.43;10.57;;;12.30;1.00;;;;;;5109856;28;20478;-56
2022/05/03 03:39:41;;;;;;;11.33;10.23;;;12.30;1.00;;;;;;5108665;28;20448;-56
2022/05/03 03:42:08;;;;;;;12.87;11.17;;;;;;;;;;5103737;28;20445;-53
2022/05/03 03:44:34;;;;;;;12.83;11.30;;;12.20;1.00;;;;;;5103943;28;20230;-54
2022/05/03 03:47:01;;;;;;;11.30;10.27;;;12.20;1.00;;;;;;5100179;28;20937;-56
2022/05/03 03:49:30;;;;;;;11.17;10.17;;;12.20;1.00;;;;;;5108729;28;20536;-55
2022/05/03 03:51:57;;;;;;;11.73;10.50;;;12.20;1.00;;;;;;5102688;28;20973;-54
2022/05/03 03:54:24;;;;;;;11.70;10.57;;;12.10;1.00;;;;;;5102801;28;20471;-55
2022/05/03 03:56:51;;;;;;;15.40;10.20;;;12.10;1.00;;;;;;5101689;28;20832;-54
2022/05/03 03:59:17;;;;;;;12.30;9.93;;;12.00;1.00;;;;;;5093904;28;20509;-53
2022/05/03 04:01:43;;;;;;;12.03;10.73;;;11.90;1.00;;;;;;5110025;28;20519;-54
2022/05/03 04:04:11;;;;;;;12.30;11.10;;;11.90;1.00;;;;;;5107735;28;20455;-57
2022/05/03 04:06:37;;;;;;;13.13;11.90;;;12.00;1.00;;;;;;5107732;28;21063;-56
2022/05/03 04:09:03;;;;;;;15.50;10.60;;;12.10;1.00;;;;;;5111019;28;20466;-55
2022/05/03 04:11:40;;;;;;;11.23;10.13;;;12.10;1.00;;;;;;5099587;28;20444;-56
2022/05/03 04:14:06;;;;;;;14.40;10.53;;;12.10;1.00;;;;;;5099548;28;20444;-55
2022/05/03 04:16:32;;;;;;;12.33;10.90;;;12.20;1.00;;;;;;5105205;28;20439;-55
2022/05/03 04:18:57;;;;;;;10.87;9.77;;;12.10;1.00;;;;;;5097848;28;20914;-55
2022/05/03 04:21:23;;;;;;;17.23;11.03;;;12.10;1.00;;;;;;5099998;28;20351;-55
2022/05/03 04:23:48;;;;;;;12.23;10.73;;;12.20;1.00;;;;;;5102886;28;20190;-56
2022/05/03 04:26:14;;;;;;;12.40;10.67;;;12.20;1.00;;;;;;5109115;28;20182;-55
2022/05/03 04:28:40;;;;;;;13.47;12.00;;;12.20;1.00;;;;;;5075737;28;20330;-57
2022/05/03 04:31:06;;;;;;;12.40;11.00;;;12.20;1.00;;;;;;5108116;28;20477;-56
2022/05/03 04:33:32;;;;;;;13.30;11.90;;;12.40;1.00;;;;;;5108644;28;20449;-55
2022/05/03 04:35:57;;;;;;;12.93;11.60;;;12.40;1.00;;;;;;5101200;28;20192;-55
2022/05/03 04:38:23;;;;;;;12.83;11.60;;;12.60;1.00;;;;;;5105745;28;20204;-57
2022/05/03 04:40:49;;;;;;;12.13;10.80;;;;;;;;;;5088552;28;20271;-55
2022/05/03 04:43:16;;;;;;;13.40;12.00;;;12.50;1.00;;;;;;5100542;28;20658;-53
2022/05/03 04:45:42;;;;;;;15.00;11.67;;;12.50;1.00;;;;;;5109898;28;20446;-54
2022/05/03 04:48:08;;;;;;;12.67;11.37;;;12.70;1.00;;;;;;5107637;28;20439;-55
2022/05/03 04:50:35;;;;;;;12.87;11.37;;;12.80;1.00;;;;;;5111480;28;20480;-55
2022/05/03 04:53:01;;;;;;;15.27;13.60;;;12.90;1.00;;;;;;5110196;28;20538;-55
2022/05/03 04:55:27;;;;;;;13.97;12.57;;;12.90;1.00;;;;;;5108740;28;21003;-55
2022/05/03 04:57:55;;;;;;;20.03;13.60;;;13.10;1.00;;;;;;5109887;28;20539;-54
2022/05/03 05:00:21;;;;;;;13.13;11.80;;;13.20;1.00;;;;;;5109293;28;20471;-55
2022/05/03 05:02:46;;;;;;;14.17;12.77;;;13.40;1.00;;;;;;5100199;28;20979;-54
2022/05/03 05:05:12;;;;;;;12.63;11.33;;;13.50;1.00;;;;;;5094017;28;20244;-54
2022/05/03 05:07:37;;;;;;;14.27;12.73;;;13.50;1.00;;;;;;5101982;28;20183;-55
2022/05/03 05:12:47;;;;;;;13.70;12.27;;;13.60;1.00;;;;;;5101883;28;20204;-56
2022/05/03 05:15:12;;;;;;;16.90;13.70;;;13.60;1.00;;;;;;5095127;28;20460;-55
2022/05/03 05:17:38;;;;;;;20.00;15.20;;;13.70;1.00;;;;;;5090604;28;21995;-55
2022/05/03 05:20:04;;;;;;;14.93;12.83;;;13.70;1.00;;;;;;5097892;28;20258;-54
2022/05/03 05:22:30;;;;;;;14.37;12.87;;;13.80;1.00;;;;;;5100759;28;20209;-56
2022/05/03 05:24:55;;;;;;;15.97;14.27;;;13.80;1.00;;;;;;5109335;28;20439;-53
2022/05/03 05:27:21;;;;;;;15.93;14.37;;;13.80;1.00;;;;;;5101045;28;20182;-56
2022/05/03 05:29:46;;;;;;;19.27;14.23;;;13.90;1.00;;;;;;5108093;28;20259;-54
2022/05/03 05:32:12;;;;;;;16.00;14.33;;;14.00;1.00;;;;;;5095877;28;20233;-55
2022/05/03 05:34:37;;;;;;;14.33;12.97;;;14.20;1.00;;;;;;5090356;28;20186;-55
2022/05/03 05:37:03;;;;;;;17.57;13.73;;;14.40;1.00;;;;;;5090028;28;20209;-55
2022/05/03 05:39:29;;;;;;;14.90;13.30;;;14.40;1.00;;;;;;5090548;28;20659;-56
2022/05/03 05:41:56;;;;;;;17.43;14.50;;;14.50;1.00;;;;;;5097231;28;20288;-56
2022/05/03 05:44:22;;;;;;;21.10;15.20;;;14.50;1.00;;;;;;5101536;28;20569;-55
2022/05/03 05:46:48;;;;;;;18.63;13.43;;;14.70;1.00;;;;;;5094405;28;20432;-56
2022/05/03 05:49:14;;;;;;;14.63;12.90;;;14.70;1.00;;;;;;5106139;28;20456;-53
2022/05/03 05:51:39;;;;;;;15.87;14.17;;;14.70;1.00;;;;;;5101542;28;20266;-54
2022/05/03 05:54:05;;;;;;;16.67;14.17;;;14.70;1.00;;;;;;5105937;28;20218;-54
2022/05/03 05:56:30;;;;;;;16.30;14.90;;;14.70;1.00;;;;;;5109666;28;20221;-56
2022/05/03 05:58:56;;;;;;;15.73;14.23;;;14.90;1.00;;;;;;5108349;28;20217;-56
2022/05/03 06:01:26;;;;;;;15.40;13.83;;;14.90;1.00;;;;;;5104019;28;20217;-55
2022/05/03 06:03:52;;;;;;;16.80;14.50;;;15.00;1.00;;;;;;5106377;28;20448;-55
2022/05/03 06:06:17;;;;;;;22.37;14.87;;;15.00;1.00;;;;;;5098469;28;20530;-53
2022/05/03 06:08:43;;;;;;;14.57;13.13;;;15.10;1.00;;;;;;5091628;28;20523;-54
2022/05/03 06:11:09;;;;;;;16.37;14.50;;;15.20;1.00;;;;;;5105968;28;20640;-57
2022/05/03 06:13:35;;;;;;;16.00;14.33;;;15.20;1.00;;;;;;5102394;28;20249;-56
2022/05/03 06:16:10;;;;;;;14.90;13.50;;;15.30;1.00;;;;;;5111409;28;20454;-55
2022/05/03 06:18:37;;;;;;;18.30;14.83;;;15.50;1.00;;;;;;5108676;28;20459;-56
2022/05/03 06:21:07;;;;;;;14.77;13.23;;;15.80;1.00;;;;;;5106944;28;20863;-56
2022/05/03 06:23:33;;;;;;;15.00;13.70;;;15.90;1.00;;;;;;5110501;28;20478;-55
2022/05/03 06:25:59;;;;;;;21.20;13.70;;;15.90;1.00;;;;;;5105394;28;20443;-54
2022/05/03 06:28:24;;;;;;;16.90;15.10;;;15.70;1.00;;;;;;5108759;28;20504;-55
2022/05/03 06:30:50;;;;;;;15.53;13.93;;;15.60;1.00;;;;;;5099007;28;20182;-55
2022/05/03 06:33:16;;;;;;;15.87;14.47;;;15.60;1.00;;;;;;5101713;28;20185;-56
2022/05/03 06:35:41;;;;;;;16.20;14.60;;;15.70;1.00;;;;;;5093683;28;20187;-56
2022/05/03 06:38:07;;;;;;;16.80;15.10;;;15.80;1.00;;;;;;5101300;28;20189;-55
2022/05/03 06:40:33;;;;;;;15.03;13.43;;;16.00;1.00;;;;;;5102272;28;20206;-55
2022/05/03 06:42:58;;;;;;;16.33;14.83;;;16.10;1.00;;;;;;5103003;28;20190;-55
2022/05/03 06:45:24;;;;;;;15.43;13.93;;;16.20;1.00;;;;;;5112249;28;20182;-55
2022/05/03 06:47:50;;;;;;;16.50;13.97;;;16.40;1.00;;;;;;5098308;28;20187;-56
2022/05/03 06:50:15;;;;;;;15.57;13.97;;;16.60;1.00;;;;;;5107801;28;20195;-57
2022/05/03 06:52:42;;;;;;;14.10;12.67;;;16.90;1.00;;;;;;5105942;28;20234;-54
2022/05/03 06:55:08;;;;;;;15.97;14.27;;;17.10;1.00;;;;;;5105570;28;20498;-54
2022/05/03 06:57:34;;;;;;;15.00;13.23;;;17.10;1.00;;;;;;5079666;28;20867;-54
2022/05/03 07:00:02;;;;;;;15.20;13.70;;;17.30;1.00;;;;;;5094873;28;20467;-55
2022/05/03 07:02:32;;;;;;;16.13;14.50;;;17.50;1.00;;;;;;5095068;28;20436;-57
2022/05/03 07:04:59;;;;;;;15.87;14.20;;;17.60;1.00;;;;;;5107835;28;20508;-56
2022/05/03 07:07:26;;;;;;;15.27;13.33;;;17.60;1.00;;;;;;5101091;28;20458;-54
2022/05/03 07:09:51;;;;;;;16.10;14.50;;;17.70;1.00;;;;;;5102661;28;20936;-56
2022/05/03 07:12:17;;;;;;;15.27;13.70;;;17.90;1.00;;;;;;5108152;28;20448;-54
2022/05/03 07:14:42;;;;;;;15.70;14.17;;;18.10;1.00;;;;;;5111496;28;20428;-55
2022/05/03 07:17:08;;;;;;;16.43;14.80;;;18.20;1.00;;;;;;5111007;28;20186;-55
2022/05/03 07:25:03;;;;;;;15.50;14.10;;;18.70;1.00;;;;;;5102648;28;20578;-55
2022/05/03 07:27:28;;;;;;;16.40;14.80;;;18.80;1.00;;;;;;5103370;28;21011;-56
2022/05/03 07:29:54;;;;;;;16.73;14.00;;;18.90;1.00;;;;;;5092866;28;20479;-55
2022/05/03 07:32:20;;;;;;;13.80;12.43;;;19.10;1.00;;;;;;5103048;28;20538;-56
2022/05/03 07:34:46;;;;;;;14.10;12.67;;;19.40;1.00;;;;;;5101424;28;20639;-54
2022/05/03 07:37:12;;;;;;;14.10;12.67;;;19.50;1.00;;;;;;5111774;28;20234;-56
2022/05/03 07:39:39;;;;;;;13.60;12.30;;;19.70;1.00;;;;;;5105653;28;20443;-54
2022/05/03 07:42:05;;;;;;;15.57;12.20;;;19.80;1.00;;;;;;5102792;28;20198;-59
2022/05/03 07:44:30;;;;;;;12.00;10.70;;;20.20;1.00;;;;;;5097397;28;20479;-53
2022/05/03 07:46:57;;;;;;;13.47;11.90;;;20.20;1.00;;;;;;5103912;28;20793;-55
2022/05/03 07:49:22;;;;;;;12.83;11.60;;;20.30;1.00;;;;;;5109999;28;20262;-55
2022/05/03 07:51:48;;;;;;;13.30;11.93;;;20.20;1.00;;;;;;5095654;28;21145;-56
2022/05/03 07:54:14;;;;;;;10.73;9.73;;;19.90;1.00;;;;;;5098118;28;20217;-56
2022/05/03 07:56:39;;;;;;;10.67;9.63;;;20.00;1.00;;;;;;5080189;28;20627;-54
2022/05/03 07:59:08;;;;;;;9.27;8.37;;;20.10;1.00;;;;;;5104041;28;20448;-56
2022/05/03 08:01:34;;;;;;;10.10;9.17;;;20.20;1.00;;;;;;5097596;28;20300;-55
2022/05/03 08:03:59;;;;;;;10.97;8.70;;;20.30;1.00;;;;;;5097367;28;20558;-56
2022/05/03 08:06:27;;;;;;;10.90;8.37;;;20.40;1.00;;;;;;5104468;28;20632;-57
2022/05/03 08:08:52;;;;;;;9.27;8.43;;;20.60;1.00;;;;;;5109520;28;20218;-57
2022/05/03 08:11:18;;;;;;;11.83;8.23;;;20.90;1.00;;;;;;5108381;28;20556;-54
2022/05/03 08:13:45;;;;;;;11.03;9.93;;;20.90;1.00;;;;;;5107952;28;20194;-56
2022/05/03 08:16:20;;;;;;;10.67;9.67;;;20.20;1.00;;;;;;5096440;28;20745;-55
2022/05/03 08:18:47;;;;;;;11.67;9.53;;;23.70;1.00;;;;;;5102814;28;20444;-56
2022/05/03 08:21:13;;;;;;;11.83;10.50;;;20.00;1.00;;;;;;5095382;28;20467;-55
2022/05/03 08:23:39;;;;;;;10.57;9.50;;;20.40;1.00;;;;;;5100654;28;20936;-57
2022/05/03 08:26:05;;;;;;;12.67;10.03;;;20.70;1.00;;;;;;5092278;28;20449;-56
2022/05/03 08:28:31;;;;;;;13.77;9.57;;;20.80;1.00;;;;;;5105461;28;20186;-56
2022/05/03 08:30:57;;;;;;;9.97;9.03;;;20.40;1.00;;;;;;5100063;28;20190;-56
2022/05/03 08:33:23;;;;;;;11.37;8.70;;;20.40;1.00;;;;;;5096690;28;20448;-57
2022/05/03 08:35:49;;;;;;;17.80;9.80;;;20.80;1.00;;;;;;5098767;28;20439;-55
2022/05/03 08:43:44;;;;;;;12.07;8.93;;;21.00;1.00;;;;;;5103360;28;20528;-55
2022/05/03 08:46:11;;;;;;;10.20;9.20;;;20.80;1.00;;;;;;5110714;28;20463;-55
2022/05/03 08:48:40;;;;;;;9.60;8.80;;;20.90;1.00;;;;;;5107185;28;20530;-57
2022/05/03 08:51:10;;;;;;;10.87;8.10;;;21.00;1.00;;;;;;5110964;28;20449;-54
2022/05/03 08:53:37;;;;;;;9.20;7.97;;;20.90;1.00;;;;;;5098454;28;20448;-55
2022/05/03 08:56:06;;;;;;;8.77;7.77;;;20.90;1.00;;;;;;5110524;28;20453;-55
2022/05/03 08:58:32;;;;;;;8.07;7.37;;;20.90;1.00;;;;;;5095391;28;20483;-55
2022/05/03 09:00:57;;;;;;;8.30;7.40;;;21.20;1.00;;;;;;5102996;28;20519;-54
2022/05/03 09:03:24;;;;;;;8.20;7.50;;;21.50;1.00;;;;;;5111640;28;20442;-56
2022/05/03 09:05:50;;;;;;;9.63;8.57;;;21.80;1.00;;;;;;5106891;28;20186;-56
2022/05/03 09:08:21;;;;;;;13.87;9.80;;;22.00;1.00;;;;;;5103562;28;20455;-53
2022/05/03 09:10:47;;;;;;;11.70;8.50;;;21.90;1.00;;;;;;5110811;28;20193;-53
2022/05/03 09:13:18;;;;;;;8.90;8.00;;;21.70;1.00;;;;;;5111573;28;20765;-56
2022/05/03 09:15:57;;;;;;;9.70;8.80;;;21.70;1.00;;;;;;5103725;28;20258;-54
2022/05/03 09:18:28;;;;;;;9.63;8.00;;;21.80;1.00;;;;;;5093518;28;20462;-55
2022/05/03 09:26:21;;;;;;;16.10;8.23;;;22.10;1.00;;;;;;5098190;28;20436;-55
2022/05/03 09:28:52;;;;;;;8.77;7.90;;;22.20;1.00;;;;;;5093991;28;20443;-55
2022/05/03 09:31:39;;;;;;;9.40;7.00;;;22.20;1.00;;;;;;5109288;28;20444;-57
2022/05/03 09:34:19;;;;;;;8.77;8.00;;;22.20;1.00;;;;;;5104720;28;20493;-55
2022/05/03 09:36:48;;;;;;;12.00;8.17;;;22.30;1.00;;;;;;5092101;28;20577;-53
2022/05/03 09:39:24;;;;;;;9.57;8.77;;;22.30;1.00;;;;;;5103941;28;20448;-53
2022/05/03 09:42:09;;;;;;;8.00;7.30;;;21.80;1.00;;;;;;5110567;28;20483;-54
2022/05/03 09:44:40;;;;;;;9.60;8.50;;;21.70;1.00;;;;;;5096859;28;20504;-54
2022/05/03 09:47:10;;;;;;;9.03;7.30;;;21.90;1.00;;;;;;5091774;28;20885;-55
2022/05/03 09:49:42;;;;;;;12.00;8.87;;;22.10;1.00;;;;;;5099950;28;20501;-52
2022/05/03 09:52:12;;;;;;;9.00;8.20;;;22.10;1.00;;;;;;5100941;28;20459;-55
2022/05/03 09:54:51;;;;;;;10.43;8.53;;;22.10;1.00;;;;;;5092823;28;20494;-57
2022/05/03 09:57:21;;;;;;;9.23;8.33;;;22.30;1.00;;;;;;5108097;28;21245;-55
2022/05/03 09:59:48;;;;;;;9.97;8.97;;;22.50;1.00;;;;;;5091859;28;20447;-60
2022/05/03 10:02:17;;;;;;;9.57;8.70;;;22.50;1.00;;;;;;5109288;28;20848;-55
2022/05/03 10:04:45;;;;;;;9.30;8.47;;;22.60;1.00;;;;;;5077938;28;20516;-56
2022/05/03 10:07:11;;;;;;;9.80;9.00;;;22.60;1.00;;;;;;5096880;28;20540;-54
2022/05/03 10:09:38;;;;;;;9.40;8.40;;;22.60;1.00;;;;;;5103337;28;20515;-54
2022/05/03 10:12:04;;;;;;;8.90;8.00;;;22.40;1.00;;;;;;5094732;28;20185;-55
2022/05/03 10:14:30;;;;;;;9.73;8.73;;;22.50;1.00;;;;;;5109298;28;20812;-54
2022/05/03 10:22:29;;;;;;;11.43;9.50;;;22.80;1.00;;;;;;5105494;28;20941;-55
2022/05/03 10:24:55;;;;;;;10.40;9.37;;;22.70;1.00;;;;;;5107354;28;20439;-54
2022/05/03 10:27:27;;;;;;;12.60;8.83;;;22.50;1.00;;;;;;5105707;28;20448;-53
2022/05/03 10:30:20;;;;;;;11.03;10.13;;;22.40;1.00;;;;;;5091629;28;20796;-54
2022/05/03 10:33:05;;;;;;;11.53;8.90;;;22.60;1.00;;;;;;5091254;28;20468;-55
2022/05/03 10:35:34;;;;;;;10.53;9.30;;;22.70;1.00;;;;;;5056956;28;20440;-54
2022/05/03 10:38:00;;;;;;;10.80;9.80;;;22.90;1.00;;;;;;5106524;28;20444;-54
2022/05/03 10:40:30;;;;;;;10.53;9.47;;;23.10;1.00;;;;;;5110508;28;20471;-53
2022/05/03 10:43:07;;;;;;;9.83;8.80;;;23.20;1.00;;;;;;5105322;28;20282;-55
2022/05/03 10:45:56;;;;;;;10.03;9.13;;;23.00;1.00;;;;;;5107344;28;20431;-53
2022/05/03 10:48:29;;;;;;;9.17;8.27;;;22.90;1.00;;;;;;5109324;28;20657;-53
2022/05/03 10:51:00;;;;;;;9.67;8.87;;;23.20;1.00;;;;;;5088742;28;20452;-53
2022/05/03 10:53:27;;;;;;;9.83;9.03;;;23.40;1.00;;;;;;5104863;28;20447;-54
2022/05/03 10:56:18;;;;;;;10.40;9.40;;;23.40;1.00;;;;;;5099572;28;20440;-56
2022/05/03 10:59:05;;;;;;;11.17;8.67;;;23.40;1.00;;;;;;5093551;28;20444;-55
2022/05/03 11:01:32;;;;;;;9.37;8.43;;;23.40;1.00;;;;;;5105109;28;20476;-56
2022/05/03 11:04:00;;;;;;;10.57;9.47;;;23.40;1.00;;;;;;5102191;28;20454;-55
2022/05/03 11:06:26;;;;;;;10.53;9.57;;;23.40;1.00;;;;;;5111640;28;20454;-56
2022/05/03 11:08:58;;;;;;;10.97;9.97;;;23.20;1.00;;;;;;5107885;28;20538;-53
2022/05/03 11:11:44;;;;;;;9.70;8.83;;;23.00;1.00;;;;;;5099782;28;20184;-53
2022/05/03 11:14:16;;;;;;;9.73;8.73;;;23.20;1.00;;;;;;5105758;28;20442;-54
2022/05/03 11:17:08;;;;;;;12.90;7.80;;;23.40;1.00;;;;;;5104414;28;20462;-55
2022/05/03 11:19:43;;;;;;;8.40;7.60;;;23.50;1.00;;;;;;5095581;28;20452;-56
2022/05/03 11:22:14;;;;;;;9.17;8.30;;;23.70;1.00;;;;;;5102226;28;20938;-55
2022/05/03 11:24:41;;;;;;;9.67;8.77;;;23.10;1.00;;;;;;5104269;28;20503;-56
2022/05/03 11:27:11;;;;;;;9.20;8.30;;;23.00;1.00;;;;;;5107694;28;20449;-54
2022/05/03 11:30:04;;;;;;;9.30;7.67;;;23.10;1.00;;;;;;5110934;28;20445;-60
2022/05/03 11:32:37;;;;;;;11.13;8.20;;;23.20;1.00;;;;;;5093139;28;20515;-56
2022/05/03 11:35:11;;;;;;;8.80;7.93;;;23.20;1.00;;;;;;5110481;28;20448;-54
2022/05/03 11:37:48;;;;;;;8.43;7.73;;;22.90;1.00;;;;;;5095477;28;20471;-55
2022/05/03 11:40:15;;;;;;;9.40;8.60;;;22.50;1.00;;;;;;5104210;28;20908;-55
2022/05/03 11:42:44;;;;;;;8.00;7.30;;;22.40;1.00;;;;;;5107145;28;20544;-54
2022/05/03 11:45:11;;;;;;;8.13;7.43;;;22.20;1.00;;;;;;5101251;28;20516;-54
2022/05/03 11:47:39;;;;;;;10.93;8.57;;;22.30;1.00;;;;;;5075276;28;20441;-54
2022/05/03 11:50:07;;;;;;;9.97;8.97;;;22.20;1.00;;;;;;5095800;28;20945;-56
2022/05/03 11:58:03;;;;;;;9.80;8.80;;;23.10;1.00;;;;;;5108667;28;20478;-55
2022/05/03 12:00:29;;;;;;;8.60;7.80;;;23.10;1.00;;;;;;5095010;28;20501;-54
2022/05/03 12:03:00;;;;;;;8.87;8.07;;;22.80;1.00;;;;;;5109774;28;20194;-55
2022/05/03 12:05:26;;;;;;;9.67;8.77;;;22.70;1.00;;;;;;5083040;28;20440;-55
2022/05/03 12:07:52;;;;;;;8.23;7.43;;;22.60;1.00;;;;;;5109959;28;20526;-55
2022/05/03 12:10:26;;;;;;;9.73;8.73;;;23.00;1.00;;;;;;5112345;28;20438;-54
2022/05/03 12:13:05;;;;;;;8.27;7.57;;;22.90;1.00;;;;;;5111419;28;20439;-55
2022/05/03 12:15:32;;;;;;;10.27;7.67;;;23.40;1.00;;;;;;5112307;28;20530;-54
2022/05/03 12:18:01;;;;;;;8.10;7.30;;;24.00;1.00;;;;;;5092457;28;20436;-54
2022/05/03 12:20:39;;;;;;;8.03;7.27;;;24.50;1.00;;;;;;5091832;28;20482;-55
2022/05/03 12:23:16;;;;;;;10.33;7.40;;;24.50;1.00;;;;;;5092252;28;20485;-54
2022/05/03 12:25:43;;;;;;;8.80;7.43;;;24.10;1.00;;;;;;5109544;28;20475;-55
2022/05/03 12:28:09;;;;;;;8.37;7.43;;;23.40;1.00;;;;;;5112327;28;20489;-52
2022/05/03 12:30:35;;;;;;;8.80;7.90;;;23.40;1.00;;;;;;5112300;28;20431;-54
2022/05/03 12:33:07;;;;;;;8.70;7.90;;;23.20;1.00;;;;;;5112357;28;20989;-54
2022/05/03 12:35:35;;;;;;;7.30;6.70;;;23.10;1.00;;;;;;5111664;28;20551;-54
2022/05/03 12:38:15;;;;;;;8.00;7.40;;;22.90;1.00;;;;;;5093799;28;20650;-53
2022/05/03 12:40:46;;;;;;;8.20;7.40;;;23.40;1.00;;;;;;5091632;28;20795;-54
2022/05/03 12:43:13;;;;;;;8.07;7.37;;;23.70;1.00;;;;;;5091384;28;21080;-54
2022/05/03 12:45:39;;;;;;;11.00;7.33;;;24.10;1.00;;;;;;5091769;28;20464;-54
2022/05/03 12:48:06;;;;;;;8.27;7.20;;;24.10;1.00;;;;;;5091686;28;20471;-54
2022/05/03 12:50:32;;;;;;;6.80;6.30;;;24.00;1.00;;;;;;5091627;28;20839;-55
2022/05/03 12:52:57;;;;;;;7.93;7.13;;;24.10;1.00;;;;;;5091754;28;20468;-55
2022/05/03 12:55:23;;;;;;;8.63;7.67;;;24.10;1.00;;;;;;5091755;28;20436;-54
2022/05/03 13:00:36;;;;;;;8.50;7.70;;;23.90;1.00;;;;;;5091626;28;20463;-56
2022/05/03 13:03:03;;;;;;;11.27;8.23;;;23.80;1.00;;;;;;5091553;28;20445;-55
2022/05/03 13:05:28;;;;;;;8.60;7.70;;;23.50;1.00;;;;;;5097749;28;20444;-55
2022/05/03 13:07:54;;;;;;;8.20;7.33;;;23.60;1.00;;;;;;5091347;28;20425;-55
2022/05/03 13:10:20;;;;;;;7.60;6.90;;;23.60;1.00;;;;;;5091200;28;20242;-54
2022/05/03 13:12:46;;;;;;;8.30;6.73;;;23.60;1.00;;;;;;5091521;28;20239;-54
2022/05/03 13:15:12;;;;;;;8.00;7.20;;;23.50;1.00;;;;;;5091338;28;20297;-54
2022/05/03 13:17:37;;;;;;;8.37;7.53;;;23.40;1.00;;;;;;5091339;28;20552;-55
2022/05/03 13:20:04;;;;;;;7.10;6.37;;;23.00;1.00;;;;;;5091315;28;20179;-54
2022/05/03 13:22:31;;;;;;;9.63;6.67;;;22.90;1.00;;;;;;5085545;28;20186;-55
2022/05/03 13:24:57;;;;;;;7.80;7.00;;;22.50;1.00;;;;;;5090874;28;20417;-55
2022/05/03 13:27:22;;;;;;;7.77;6.90;;;22.70;1.00;;;;;;5090985;28;20482;-54
2022/05/03 13:29:48;;;;;;;7.50;6.80;;;23.00;1.00;;;;;;5091038;28;20477;-53
2022/05/03 13:32:13;;;;;;;7.80;7.10;;;23.50;1.00;;;;;;5090924;28;20194;-55
2022/05/03 13:34:39;;;;;;;7.20;6.50;;;23.70;1.00;;;;;;5098997;28;20186;-55
2022/05/03 13:42:33;;;;;;;7.27;6.63;;;23.00;1.00;;;;;;5090761;28;20448;-53
2022/05/03 13:44:58;;;;;;;7.50;6.40;;;22.90;1.00;;;;;;5090603;28;20460;-55